createdAt,value
2023-05-05T00:00:29.888Z,16.40
2023-05-05T00:02:58.568Z,16.40
2023-05-05T00:05:26.512Z,16.50
2023-05-05T00:07:54.442Z,16.60
2023-05-05T00:10:22.421Z,16.60
2023-05-05T00:12:50.587Z,16.50
2023-05-05T00:15:20.118Z,16.50
2023-05-05T00:17:48.136Z,16.50
2023-05-05T00:20:16.129Z,16.50
2023-05-05T00:22:44.020Z,16.50
2023-05-05T00:25:12.060Z,16.60
2023-05-05T00:27:41.066Z,16.60
2023-05-05T00:30:09.810Z,16.50
2023-05-05T00:32:39.593Z,16.60
2023-05-05T00:35:08.446Z,16.50
2023-05-05T00:37:36.627Z,16.60
2023-05-05T00:40:05.724Z,16.60
2023-05-05T00:42:40.816Z,16.60
2023-05-05T00:45:09.730Z,16.60
2023-05-05T00:47:39.268Z,16.60
2023-05-05T00:50:09.357Z,16.70
2023-05-05T00:52:37.656Z,16.60
2023-05-05T00:55:06.225Z,16.70
2023-05-05T00:57:36.484Z,16.70
2023-05-05T01:00:05.972Z,16.80
2023-05-05T01:02:34.312Z,16.80
2023-05-05T01:05:04.461Z,16.80
2023-05-05T01:07:43.920Z,16.80
2023-05-05T01:10:21.000Z,16.70
2023-05-05T01:12:55.765Z,16.70
2023-05-05T01:15:32.418Z,16.70
2023-05-05T01:18:06.256Z,16.70
2023-05-05T01:20:42.611Z,16.70
2023-05-05T01:23:14.798Z,16.70
2023-05-05T01:26:06.763Z,16.70
2023-05-05T01:29:00.538Z,16.70
2023-05-05T01:31:44.508Z,16.70
2023-05-05T01:34:16.433Z,16.60
2023-05-05T01:36:47.498Z,16.60
2023-05-05T01:39:17.481Z,16.60
2023-05-05T01:41:49.516Z,16.50
2023-05-05T01:44:18.813Z,16.50
2023-05-05T01:46:49.919Z,16.40
2023-05-05T01:49:17.860Z,16.40
2023-05-05T01:51:47.750Z,16.50
2023-05-05T01:54:18.611Z,16.50
2023-05-05T01:56:49.887Z,16.60
2023-05-05T01:59:18.852Z,16.50
2023-05-05T02:01:49.999Z,16.40
2023-05-05T02:04:22.789Z,16.40
2023-05-05T02:06:53.371Z,16.50
2023-05-05T02:09:22.444Z,16.40
2023-05-05T02:11:50.971Z,16.40
2023-05-05T02:14:21.146Z,16.40
2023-05-05T02:16:51.676Z,16.40
2023-05-05T02:19:21.069Z,16.40
2023-05-05T02:21:49.071Z,16.40
2023-05-05T02:24:17.207Z,16.40
2023-05-05T02:26:46.926Z,16.40
2023-05-05T02:29:19.832Z,16.40
2023-05-05T02:31:51.581Z,16.40
2023-05-05T02:34:25.152Z,16.30
2023-05-05T02:36:55.528Z,16.30
2023-05-05T02:39:28.792Z,16.20
2023-05-05T02:41:58.048Z,16.20
2023-05-05T02:44:28.744Z,16.20
2023-05-05T02:46:58.992Z,16.10
2023-05-05T02:49:26.924Z,16.20
2023-05-05T02:51:54.930Z,16.10
2023-05-05T02:54:22.958Z,16.10
2023-05-05T02:56:52.139Z,16.00
2023-05-05T02:59:26.345Z,15.90
2023-05-05T03:02:11.126Z,15.90
2023-05-05T03:04:42.815Z,15.80
2023-05-05T03:07:15.317Z,15.80
2023-05-05T03:09:47.272Z,15.90
2023-05-05T03:12:21.238Z,15.80
2023-05-05T03:14:52.426Z,15.80
2023-05-05T03:17:23.750Z,15.80
2023-05-05T03:19:52.830Z,15.80
2023-05-05T03:22:21.102Z,15.70
2023-05-05T03:24:51.263Z,15.70
2023-05-05T03:27:20.398Z,15.70
2023-05-05T03:29:48.418Z,15.60
2023-05-05T03:32:17.670Z,15.70
2023-05-05T03:34:46.946Z,15.70
2023-05-05T03:37:14.880Z,15.80
2023-05-05T03:39:42.866Z,15.80
2023-05-05T03:42:10.810Z,15.80
2023-05-05T03:44:38.710Z,15.90
2023-05-05T03:47:06.876Z,15.90
2023-05-05T03:49:34.772Z,16.00
2023-05-05T03:52:04.037Z,16.00
2023-05-05T03:54:32.344Z,16.10
2023-05-05T03:57:00.367Z,16.10
2023-05-05T03:59:28.606Z,16.00
2023-05-05T04:01:56.789Z,16.00
2023-05-05T04:04:24.906Z,16.00
2023-05-05T04:06:52.901Z,16.00
2023-05-05T04:09:22.284Z,16.00
2023-05-05T04:11:50.184Z,16.00
2023-05-05T04:14:18.131Z,15.90
2023-05-05T04:16:46.057Z,15.90
2023-05-05T04:19:14.256Z,15.80
2023-05-05T04:21:42.390Z,15.90
2023-05-05T04:24:10.388Z,15.90
2023-05-05T04:26:39.714Z,15.90
2023-05-05T04:29:08.906Z,15.90
2023-05-05T04:31:36.931Z,15.90
2023-05-05T04:34:04.863Z,15.90
2023-05-05T04:36:33.079Z,16.00
2023-05-05T04:39:01.123Z,16.10
2023-05-05T04:41:30.175Z,16.20
2023-05-05T04:43:59.509Z,16.30
2023-05-05T04:46:27.770Z,16.50
2023-05-05T04:48:55.697Z,16.90
2023-05-05T04:51:23.692Z,17.50
2023-05-05T04:53:51.892Z,18.00
2023-05-05T04:56:19.847Z,18.00
2023-05-05T04:58:47.823Z,17.80
2023-05-05T05:01:17.547Z,17.80
2023-05-05T05:03:45.828Z,18.20
2023-05-05T05:06:14.017Z,18.50
2023-05-05T05:08:42.370Z,19.00
2023-05-05T05:11:10.529Z,19.30
2023-05-05T05:13:38.479Z,19.00
2023-05-05T05:16:07.824Z,18.60
2023-05-05T05:18:37.418Z,18.20
2023-05-05T05:21:05.586Z,17.80
2023-05-05T05:23:33.658Z,17.50
2023-05-05T05:26:01.655Z,17.30
2023-05-05T05:28:31.278Z,17.20
2023-05-05T05:31:01.666Z,17.10
2023-05-05T05:33:30.396Z,17.10
2023-05-05T05:35:59.809Z,17.00
2023-05-05T05:38:27.794Z,17.10
2023-05-05T05:40:55.908Z,17.00
2023-05-05T05:43:23.914Z,17.00
2023-05-05T05:45:52.029Z,17.10
2023-05-05T05:48:21.417Z,17.10
2023-05-05T05:50:49.372Z,17.10
2023-05-05T05:53:18.683Z,17.10
2023-05-05T05:55:47.359Z,17.20
2023-05-05T05:58:16.515Z,17.30
2023-05-05T06:00:44.469Z,17.40
2023-05-05T06:03:12.600Z,17.50
2023-05-05T06:05:40.866Z,17.60
2023-05-05T06:08:09.124Z,18.00
2023-05-05T06:10:38.419Z,18.40
2023-05-05T06:13:06.471Z,19.20
2023-05-05T06:15:34.473Z,20.10
2023-05-05T06:18:02.534Z,21.10
2023-05-05T06:20:30.498Z,21.10
2023-05-05T06:22:58.463Z,21.30
2023-05-05T06:25:26.867Z,21.60
2023-05-05T06:27:56.172Z,22.50
2023-05-05T06:30:26.060Z,23.00
2023-05-05T06:32:54.881Z,22.50
2023-05-05T06:35:23.126Z,21.70
2023-05-05T06:37:51.388Z,21.20
2023-05-05T06:40:20.362Z,21.10
2023-05-05T06:42:48.307Z,20.80
2023-05-05T06:45:18.238Z,20.20
2023-05-05T06:47:46.221Z,19.50
2023-05-05T06:50:14.358Z,19.10
2023-05-05T06:52:42.577Z,18.90
2023-05-05T06:55:11.343Z,18.60
2023-05-05T06:57:39.362Z,18.40
2023-05-05T07:00:11.203Z,18.40
2023-05-05T07:02:40.558Z,18.30
2023-05-05T07:05:08.956Z,18.60
2023-05-05T07:07:37.124Z,18.80
2023-05-05T07:10:05.697Z,19.00
2023-05-05T07:12:33.872Z,19.10
2023-05-05T07:15:09.323Z,19.10
2023-05-05T07:17:45.233Z,19.50
2023-05-05T07:20:13.971Z,20.00
2023-05-05T07:22:41.943Z,20.80
2023-05-05T07:25:10.346Z,21.20
2023-05-05T07:27:38.457Z,21.10
2023-05-05T07:30:12.355Z,21.00
2023-05-05T07:32:42.451Z,20.80
2023-05-05T07:35:12.122Z,20.70
2023-05-05T07:37:40.283Z,20.60
2023-05-05T07:40:09.644Z,20.50
2023-05-05T07:42:37.794Z,20.20
2023-05-05T07:45:07.195Z,19.80
2023-05-05T07:47:35.464Z,19.70
2023-05-05T07:50:03.486Z,19.80
2023-05-05T07:52:45.387Z,20.10
2023-05-05T07:55:17.865Z,20.20
2023-05-05T07:57:45.950Z,20.10
2023-05-05T08:00:15.138Z,20.00
2023-05-05T08:02:44.092Z,19.80
2023-05-05T08:05:13.039Z,19.70
2023-05-05T08:07:42.401Z,19.70
2023-05-05T08:10:12.206Z,19.40
2023-05-05T08:12:40.880Z,19.10
2023-05-05T08:15:09.626Z,19.00
2023-05-05T08:17:49.036Z,18.90
2023-05-05T08:20:17.742Z,18.70
2023-05-05T08:22:47.877Z,18.60
2023-05-05T08:25:15.988Z,18.30
2023-05-05T08:27:44.355Z,18.10
2023-05-05T08:30:13.070Z,17.80
2023-05-05T08:32:41.261Z,17.60
2023-05-05T08:35:10.273Z,17.50
2023-05-05T08:37:38.596Z,17.40
2023-05-05T08:40:09.309Z,17.40
2023-05-05T08:42:39.143Z,17.10
2023-05-05T08:45:10.458Z,16.70
2023-05-05T08:47:39.668Z,16.30
2023-05-05T08:50:11.119Z,16.00
2023-05-05T08:52:41.381Z,15.80
2023-05-05T08:55:21.434Z,15.60
2023-05-05T08:58:01.115Z,15.50
2023-05-05T09:00:29.528Z,15.50
2023-05-05T09:02:58.869Z,15.50
2023-05-05T09:05:27.757Z,15.60
2023-05-05T09:07:55.881Z,15.60
2023-05-05T09:10:29.982Z,15.50
2023-05-05T09:12:58.699Z,15.40
2023-05-05T09:15:28.367Z,15.40
2023-05-05T09:17:58.226Z,15.40
2023-05-05T09:20:31.048Z,15.50
2023-05-05T09:22:58.987Z,15.70
2023-05-05T09:25:28.484Z,15.90
2023-05-05T09:27:56.395Z,16.30
2023-05-05T09:30:26.026Z,16.50
2023-05-05T09:32:55.933Z,16.80
2023-05-05T09:35:24.455Z,17.40
2023-05-05T09:37:52.358Z,17.80
2023-05-05T09:40:21.421Z,18.20
2023-05-05T09:43:02.286Z,18.50
2023-05-05T09:45:30.243Z,18.70
2023-05-05T09:48:00.206Z,18.80
2023-05-05T09:50:30.708Z,18.80
2023-05-05T09:53:00.102Z,18.90
2023-05-05T09:55:28.271Z,19.00
2023-05-05T09:57:57.576Z,19.10
2023-05-05T10:00:39.954Z,19.30
2023-05-05T10:03:07.967Z,19.40
2023-05-05T10:05:48.936Z,19.50
2023-05-05T10:08:17.730Z,19.90
2023-05-05T10:10:50.520Z,20.40
2023-05-05T10:13:21.508Z,20.70
2023-05-05T10:15:51.961Z,21.00
2023-05-05T10:18:23.262Z,20.80
2023-05-05T10:20:58.644Z,20.90
2023-05-05T10:23:31.937Z,20.60
2023-05-05T10:26:03.632Z,20.40
2023-05-05T10:28:35.565Z,20.50
2023-05-05T10:31:13.143Z,20.80
2023-05-05T10:33:56.195Z,20.80
2023-05-05T10:36:25.530Z,20.90
2023-05-05T10:38:57.098Z,21.20
2023-05-05T10:41:25.994Z,21.70
2023-05-05T10:43:57.331Z,21.80
2023-05-05T10:46:26.489Z,21.70
2023-05-05T10:49:00.534Z,21.70
2023-05-05T10:51:40.668Z,22.30
2023-05-05T10:54:14.839Z,22.40
2023-05-05T10:56:43.853Z,22.50
2023-05-05T10:59:47.407Z,22.50
2023-05-05T11:02:21.045Z,22.30
2023-05-05T11:05:12.282Z,22.50
2023-05-05T11:07:40.607Z,22.50
2023-05-05T11:10:09.664Z,22.70
2023-05-05T11:13:21.325Z,22.80
2023-05-05T11:15:54.125Z,22.60
2023-05-05T11:18:39.490Z,22.10
2023-05-05T11:21:19.051Z,22.00
2023-05-05T11:23:49.008Z,22.40
2023-05-05T11:26:18.714Z,22.60
2023-05-05T11:29:05.328Z,22.10
2023-05-05T11:31:34.929Z,22.50
2023-05-05T11:34:25.777Z,22.20
2023-05-05T11:36:57.542Z,22.20
2023-05-05T11:39:36.292Z,22.50
2023-05-05T11:42:26.771Z,22.90
2023-05-05T11:44:55.617Z,22.90
2023-05-05T11:47:42.943Z,22.40
2023-05-05T11:50:19.632Z,22.10
2023-05-05T11:52:48.779Z,22.00
2023-05-05T11:55:22.956Z,22.00
2023-05-05T11:57:50.909Z,22.10
2023-05-05T12:00:19.633Z,22.50
2023-05-05T12:02:57.550Z,22.70
2023-05-05T12:05:25.764Z,22.30
2023-05-05T12:07:58.533Z,22.30
2023-05-05T12:10:26.820Z,22.50
2023-05-05T12:12:55.437Z,22.60
2023-05-05T12:15:31.494Z,22.50
2023-05-05T12:18:02.636Z,22.60
2023-05-05T12:20:33.080Z,22.80
2023-05-05T12:23:02.687Z,23.30
2023-05-05T12:25:37.107Z,23.20
2023-05-05T12:28:07.310Z,23.20
2023-05-05T12:30:35.949Z,23.00
2023-05-05T12:33:06.752Z,22.80
2023-05-05T12:35:35.688Z,23.20
2023-05-05T12:38:04.064Z,23.00
2023-05-05T12:40:45.647Z,22.70
2023-05-05T12:43:31.691Z,23.10
2023-05-05T12:46:10.269Z,22.90
2023-05-05T12:48:41.464Z,22.90
2023-05-05T12:51:20.568Z,23.00
2023-05-05T12:53:49.523Z,23.20
2023-05-05T12:56:34.528Z,22.90
2023-05-05T12:59:03.034Z,22.50
2023-05-05T13:01:31.507Z,22.20
2023-05-05T13:04:08.678Z,22.20
2023-05-05T13:06:37.694Z,22.50
2023-05-05T13:09:06.440Z,22.40
2023-05-05T13:11:38.179Z,22.30
2023-05-05T13:14:07.686Z,22.10
2023-05-05T13:16:35.950Z,22.10
2023-05-05T13:19:03.951Z,22.10
2023-05-05T13:21:33.340Z,22.20
2023-05-05T13:24:08.674Z,22.10
2023-05-05T13:26:49.474Z,21.90
2023-05-05T13:29:17.800Z,21.90
2023-05-05T13:31:46.246Z,21.80
2023-05-05T13:34:14.336Z,21.90
2023-05-05T13:36:43.632Z,21.80
2023-05-05T13:39:12.561Z,21.80
2023-05-05T13:41:40.547Z,22.10
2023-05-05T13:44:08.435Z,22.20
2023-05-05T13:46:36.475Z,22.30
2023-05-05T13:49:04.514Z,22.20
2023-05-05T13:51:34.588Z,22.10
2023-05-05T13:54:04.118Z,21.90
2023-05-05T13:56:32.130Z,21.80
2023-05-05T13:59:00.054Z,21.90
2023-05-05T14:01:28.342Z,21.90
2023-05-05T14:03:57.632Z,22.10
2023-05-05T14:06:26.096Z,22.10
2023-05-05T14:08:54.358Z,21.90
2023-05-05T14:11:23.663Z,22.30
2023-05-05T14:13:52.043Z,22.50
2023-05-05T14:16:20.223Z,22.50
2023-05-05T14:18:48.246Z,22.30
2023-05-05T14:21:16.485Z,22.20
2023-05-05T14:23:44.405Z,22.10
2023-05-05T14:26:12.353Z,22.00
2023-05-05T14:28:42.319Z,22.00
2023-05-05T14:31:11.068Z,22.10
2023-05-05T14:33:39.003Z,21.70
2023-05-05T14:36:07.489Z,21.70
2023-05-05T14:38:35.509Z,21.80
2023-05-05T14:41:03.503Z,21.90
2023-05-05T14:43:31.451Z,21.90
2023-05-05T14:46:05.734Z,22.00
2023-05-05T14:48:34.066Z,22.00
2023-05-05T14:51:02.269Z,22.00
2023-05-05T14:53:30.199Z,22.00
2023-05-05T14:55:58.157Z,21.90
2023-05-05T14:58:26.196Z,21.60
2023-05-05T15:00:54.583Z,21.50
2023-05-05T15:03:23.919Z,21.50
2023-05-05T15:05:52.163Z,21.40
2023-05-05T15:08:20.191Z,21.20
2023-05-05T15:10:48.394Z,21.10
2023-05-05T15:13:17.160Z,21.10
2023-05-05T15:15:45.528Z,20.90
2023-05-05T15:18:13.619Z,20.90
2023-05-05T15:20:42.938Z,20.80
2023-05-05T15:23:10.904Z,20.70
2023-05-05T15:25:38.898Z,20.70
2023-05-05T15:28:06.996Z,20.50
2023-05-05T15:30:35.258Z,20.40
2023-05-05T15:33:03.318Z,20.30
2023-05-05T15:35:31.300Z,20.10
2023-05-05T15:38:00.648Z,19.90
2023-05-05T15:40:28.633Z,19.70
2023-05-05T15:42:56.662Z,19.70
2023-05-05T15:45:24.836Z,19.70
2023-05-05T15:47:53.610Z,19.60
2023-05-05T15:50:21.795Z,19.50
2023-05-05T15:52:50.147Z,19.40
2023-05-05T15:55:19.512Z,19.30
2023-05-05T15:57:47.621Z,19.20
2023-05-05T16:00:16.314Z,19.10
2023-05-05T16:02:45.003Z,18.90
2023-05-05T16:05:13.439Z,18.70
2023-05-05T16:07:41.420Z,18.40
2023-05-05T16:10:10.710Z,18.00
2023-05-05T16:12:40.077Z,17.70
2023-05-05T16:15:09.138Z,17.30
2023-05-05T16:17:37.415Z,16.90
2023-05-05T16:20:06.594Z,16.60
2023-05-05T16:22:34.644Z,16.40
2023-05-05T16:25:02.578Z,16.20
2023-05-05T16:27:30.531Z,16.00
2023-05-05T16:30:00.044Z,15.90
2023-05-05T16:32:28.082Z,15.80
2023-05-05T16:34:56.128Z,15.80
2023-05-05T16:37:24.160Z,15.70
2023-05-05T16:39:52.129Z,15.50
2023-05-05T16:42:20.247Z,15.30
2023-05-05T16:44:48.483Z,15.30
2023-05-05T16:47:17.792Z,15.00
2023-05-05T16:49:45.714Z,14.70
2023-05-05T16:52:13.657Z,14.30
2023-05-05T16:54:41.560Z,14.00
2023-05-05T16:57:09.566Z,13.70
2023-05-05T16:59:37.523Z,13.60
2023-05-05T17:02:05.602Z,13.40
2023-05-05T17:04:35.030Z,13.30
2023-05-05T17:07:03.056Z,13.30
2023-05-05T17:09:31.024Z,13.20
2023-05-05T17:11:58.945Z,13.30
2023-05-05T17:14:27.379Z,13.40
2023-05-05T17:16:55.444Z,13.40
2023-05-05T17:19:23.625Z,13.50
2023-05-05T17:21:53.027Z,13.60
2023-05-05T17:24:20.972Z,13.60
2023-05-05T17:26:49.061Z,13.70
2023-05-05T17:29:19.758Z,13.70
2023-05-05T17:31:48.227Z,13.80
2023-05-05T17:34:16.298Z,13.90
2023-05-05T17:36:44.340Z,14.00
2023-05-05T17:39:13.979Z,14.10
2023-05-05T17:41:42.911Z,14.10
2023-05-05T17:44:10.893Z,14.20
2023-05-05T17:46:39.385Z,14.20
2023-05-05T17:49:07.498Z,14.30
2023-05-05T17:51:35.635Z,14.30
2023-05-05T17:54:03.678Z,14.40
2023-05-05T17:56:33.850Z,14.40
2023-05-05T17:59:02.332Z,14.40
2023-05-05T18:01:30.343Z,14.40
2023-05-05T18:03:58.519Z,14.40
2023-05-05T18:06:27.052Z,14.50
2023-05-05T18:08:55.113Z,14.40
2023-05-05T18:11:27.514Z,14.50
2023-05-05T18:13:57.200Z,14.40
2023-05-05T18:16:25.280Z,14.40
2023-05-05T18:18:53.516Z,14.40
2023-05-05T18:21:21.470Z,14.20
2023-05-05T18:23:49.736Z,14.10
2023-05-05T18:26:17.665Z,14.00
2023-05-05T18:28:45.899Z,14.00
2023-05-05T18:31:15.239Z,14.00
2023-05-05T18:33:44.197Z,14.10
2023-05-05T18:36:13.095Z,14.10
2023-05-05T18:38:41.089Z,14.20
2023-05-05T18:41:10.332Z,14.20
2023-05-05T18:43:38.491Z,14.20
2023-05-05T18:46:06.461Z,14.20
2023-05-05T18:48:35.839Z,14.10
2023-05-05T18:51:04.244Z,14.20
2023-05-05T18:53:32.530Z,14.20
2023-05-05T18:56:01.435Z,14.20
2023-05-05T18:58:30.458Z,14.20
2023-05-05T19:00:58.737Z,14.20
2023-05-05T19:03:26.762Z,14.30
2023-05-05T19:05:56.136Z,14.40
2023-05-05T19:08:24.393Z,14.40
2023-05-05T19:10:52.482Z,14.30
2023-05-05T19:13:20.629Z,14.00
2023-05-05T19:15:49.100Z,14.00
2023-05-05T19:18:17.323Z,13.90
2023-05-05T19:20:45.409Z,13.90
2023-05-05T19:23:14.807Z,13.90
2023-05-05T19:25:44.405Z,13.80
2023-05-05T19:28:12.611Z,13.80
2023-05-05T19:30:40.652Z,13.70
2023-05-05T19:33:08.788Z,13.70
2023-05-05T19:35:36.987Z,13.70
2023-05-05T19:38:05.498Z,13.80
2023-05-05T19:40:34.857Z,13.90
2023-05-05T19:43:02.939Z,14.00
2023-05-05T19:45:31.809Z,14.00
2023-05-05T19:48:00.158Z,14.00
2023-05-05T19:50:30.193Z,14.00
2023-05-05T19:52:58.590Z,14.20
2023-05-05T19:55:26.787Z,14.10
2023-05-05T19:57:56.129Z,14.10
2023-05-05T20:00:24.305Z,14.00
2023-05-05T20:02:52.497Z,14.10
2023-05-05T20:05:22.103Z,14.10
2023-05-05T20:07:51.780Z,14.20
2023-05-05T20:10:20.309Z,14.20
2023-05-05T20:12:49.144Z,14.00
2023-05-05T20:15:21.153Z,14.10
2023-05-05T20:17:50.468Z,14.20
2023-05-05T20:20:20.381Z,14.30
2023-05-05T20:22:49.121Z,14.30
2023-05-05T20:25:18.130Z,14.20
2023-05-05T20:27:46.377Z,14.30
2023-05-05T20:30:14.647Z,14.40
2023-05-05T20:32:44.158Z,14.30
2023-05-05T20:35:12.824Z,14.20
2023-05-05T20:37:41.102Z,14.20
2023-05-05T20:40:10.611Z,14.10
2023-05-05T20:42:38.817Z,14.00
2023-05-05T20:45:08.055Z,14.00
2023-05-05T20:47:36.189Z,14.00
2023-05-05T20:50:06.475Z,14.10
2023-05-05T20:52:35.100Z,14.10
2023-05-05T20:55:03.127Z,14.20
2023-05-05T20:57:31.154Z,14.10
2023-05-05T20:59:59.327Z,13.90
2023-05-05T21:02:27.431Z,14.00
2023-05-05T21:05:02.245Z,13.90
2023-05-05T21:07:34.213Z,13.90
2023-05-05T21:10:02.599Z,13.90
2023-05-05T21:12:31.016Z,13.90
2023-05-05T21:14:59.669Z,13.90
2023-05-05T21:17:28.012Z,14.00
2023-05-05T21:19:57.047Z,13.90
2023-05-05T21:22:25.437Z,14.00
2023-05-05T21:24:55.496Z,13.90
2023-05-05T21:27:24.975Z,13.90
2023-05-05T21:29:52.986Z,13.80
2023-05-05T21:32:23.631Z,13.70
2023-05-05T21:34:51.827Z,13.60
2023-05-05T21:37:19.841Z,13.70
2023-05-05T21:39:49.477Z,13.70
2023-05-05T21:42:18.853Z,13.70
2023-05-05T21:44:46.917Z,13.80
2023-05-05T21:47:14.972Z,13.70
2023-05-05T21:49:43.132Z,13.60
2023-05-05T21:52:11.939Z,13.60
2023-05-05T21:54:40.796Z,13.50
2023-05-05T21:57:08.853Z,13.50
2023-05-05T21:59:38.349Z,13.50
2023-05-05T22:02:06.427Z,13.50
2023-05-05T22:04:34.927Z,13.60
2023-05-05T22:07:02.887Z,13.60
2023-05-05T22:09:31.050Z,13.50
2023-05-05T22:11:59.045Z,13.50
2023-05-05T22:14:26.992Z,13.50
2023-05-05T22:16:56.307Z,13.40
2023-05-05T22:19:24.409Z,13.40
2023-05-05T22:21:52.388Z,13.30
2023-05-05T22:24:20.351Z,13.30
2023-05-05T22:26:48.347Z,13.20
2023-05-05T22:29:16.367Z,13.20
2023-05-05T22:31:44.416Z,13.20
2023-05-05T22:34:13.945Z,13.20
2023-05-05T22:36:42.389Z,13.20
2023-05-05T22:39:10.986Z,13.30
2023-05-05T22:41:39.229Z,13.40
2023-05-05T22:44:07.336Z,13.50
2023-05-05T22:46:35.350Z,13.50
2023-05-05T22:49:03.449Z,13.50
2023-05-05T22:51:32.839Z,13.60
2023-05-05T22:54:00.751Z,13.60
2023-05-05T22:56:28.704Z,13.70
2023-05-05T22:58:57.299Z,13.70
2023-05-05T23:01:25.540Z,13.60
2023-05-05T23:03:53.605Z,13.50
2023-05-05T23:06:21.704Z,13.60
2023-05-05T23:08:51.090Z,13.50
2023-05-05T23:11:19.074Z,13.60
2023-05-05T23:13:47.041Z,13.60
2023-05-05T23:16:15.091Z,13.60
2023-05-05T23:18:43.046Z,13.60
2023-05-05T23:21:11.470Z,13.50
2023-05-05T23:23:39.451Z,13.50
2023-05-05T23:26:08.771Z,13.50
2023-05-05T23:28:36.708Z,13.50
2023-05-05T23:31:04.770Z,13.50
2023-05-05T23:33:32.802Z,13.50
2023-05-05T23:36:00.755Z,13.50
2023-05-05T23:38:28.778Z,13.50
2023-05-05T23:40:56.702Z,13.50
2023-05-05T23:43:26.007Z,13.50
2023-05-05T23:45:54.245Z,13.60
2023-05-05T23:48:22.360Z,13.60
2023-05-05T23:50:50.421Z,13.60
2023-05-05T23:53:18.343Z,13.60
2023-05-05T23:55:46.358Z,13.60
2023-05-05T23:58:14.302Z,13.60
